Time;durP1;ratioP1;P1;durP2;ratioP2;P2;SDS_P1;SDS_P2;PMS_P1;PMS_P2;Temp;Humidity;BMP_temperature;BMP_pressure;BME280_temperature;BME280_humidity;BME280_pressure;Samples;Min_cycle;Max_cycle;Signal;HPM_P1;HPM_P2
2021/04/19 00:01:48;;;;;;;25.92;14.15;;;;;;;27.24;17.74;98295.72;5043211;28;20029;-89
2021/04/19 00:04:14;;;;;;;24.65;13.38;;;;;;;27.14;17.53;98302.50;5040837;28;20034;-89
2021/04/19 00:06:42;;;;;;;22.15;13.00;;;;;;;27.12;17.68;98302.16;5041466;28;20096;-89
2021/04/19 00:09:08;;;;;;;18.00;10.80;;;;;;;26.56;18.31;98296.13;5046775;28;20059;-89
2021/04/19 00:11:35;;;;;;;20.45;12.18;;;;;;;26.28;18.20;98292.09;5047658;28;20048;-89
2021/04/19 00:14:02;;;;;;;22.77;12.98;;;;;;;26.04;18.50;98291.50;5042166;28;20033;-88
2021/04/19 00:16:28;;;;;;;24.33;13.60;;;;;;;26.27;18.52;98290.53;5044248;28;20423;-88
2021/04/19 00:18:55;;;;;;;22.98;11.98;;;;;;;26.33;18.33;98288.75;5049635;28;20029;-88
2021/04/19 00:21:21;;;;;;;26.55;13.52;;;;;;;26.07;18.59;98289.81;5048240;28;20132;-88
2021/04/19 00:23:47;;;;;;;26.38;14.50;;;;;;;25.97;18.63;98279.66;5044012;28;20028;-88
2021/04/19 00:26:13;;;;;;;26.13;14.15;;;;;;;26.07;18.73;98276.53;5043583;28;20045;-88
2021/04/19 00:28:39;;;;;;;25.40;13.63;;;;;;;26.23;18.48;98280.59;5040329;28;20477;-88
2021/04/19 00:31:07;;;;;;;26.90;15.20;;;;;;;26.49;18.19;98271.03;5042796;28;20057;-89
2021/04/19 00:33:33;;;;;;;24.67;13.60;;;;;;;26.66;17.85;98275.31;5041334;28;20155;-88
2021/04/19 00:35:59;;;;;;;25.23;14.07;;;;;;;26.69;17.92;98277.25;5045006;28;20510;-88
2021/04/19 00:38:25;;;;;;;27.80;13.60;;;;;;;26.83;17.72;98276.06;5042039;28;20087;-88
2021/04/19 00:40:53;;;;;;;21.35;11.05;;;;;;;26.51;18.07;98280.56;5050904;28;20064;-89
2021/04/19 00:43:20;;;;;;;23.58;12.27;;;;;;;26.53;18.34;98280.16;5045682;28;20360;-89
2021/04/19 00:45:50;;;;;;;22.17;12.30;;;;;;;26.37;18.32;98278.16;5048242;28;20036;-89
2021/04/19 00:48:17;;;;;;;21.17;12.18;;;;;;;26.49;18.07;98271.03;5050960;28;20406;-89
2021/04/19 00:50:43;;;;;;;22.00;12.60;;;;;;;26.51;18.34;98271.34;5047898;28;20033;-89
2021/04/19 00:53:10;;;;;;;17.30;10.60;;;;;;;26.22;18.14;98271.34;5048925;28;20513;-89
2021/04/19 00:55:37;;;;;;;21.83;10.25;;;;;;;26.34;18.01;98267.00;5049125;28;20033;-89
2021/04/19 00:58:03;;;;;;;14.68;7.85;;;;;;;26.33;18.27;98276.69;5048426;28;20113;-89
2021/04/19 01:00:33;;;;;;;17.27;10.45;;;;;;;26.30;18.15;98267.09;5043048;28;20115;-88
2021/04/19 01:03:00;;;;;;;24.75;12.02;;;;;;;26.17;18.36;98271.91;5050696;28;20075;-89
2021/04/19 01:05:32;;;;;;;22.30;11.77;;;;;;;26.42;18.16;98276.84;5047485;28;20040;-89
2021/04/19 01:07:58;;;;;;;26.23;14.05;;;;;;;26.65;18.13;98276.59;5049365;28;20040;-89
2021/04/19 01:10:25;;;;;;;27.55;13.75;;;;;;;26.85;17.89;98263.13;5042309;28;20502;-89
2021/04/19 01:12:51;;;;;;;27.83;14.57;;;;;;;27.00;17.55;98272.69;5048736;28;20115;-90
2021/04/19 01:15:17;;;;;;;25.75;13.25;;;;;;;27.13;17.60;98267.09;5050138;28;20051;-91
2021/04/19 01:17:45;;;;;;;24.33;13.20;;;;;;;27.13;17.63;98261.44;5044068;28;20052;-91
2021/04/19 01:20:14;;;;;;;22.38;12.77;;;;;;;26.19;18.42;98266.59;5048971;28;20103;-90
2021/04/19 01:22:40;;;;;;;26.50;14.40;;;;;;;26.20;18.41;98268.19;5047372;28;20076;-90
2021/04/19 01:25:08;;;;;;;24.70;14.30;;;;;;;26.45;18.09;98262.66;5048811;28;20025;-91
2021/04/19 01:27:35;;;;;;;23.98;13.07;;;;;;;26.69;17.82;98258.34;5043513;28;20036;-90
2021/04/19 01:30:03;;;;;;;26.42;13.18;;;;;;;26.49;17.65;98259.75;5050029;28;20062;-91
2021/04/19 01:32:29;;;;;;;25.92;13.32;;;;;;;26.43;18.14;98253.06;5046255;28;20078;-91
2021/04/19 01:34:55;;;;;;;25.70;13.07;;;;;;;26.56;17.91;98256.69;5046801;28;20391;-90
2021/04/19 01:37:21;;;;;;;23.65;12.85;;;;;;;26.03;18.18;98256.16;5038679;28;20037;-91
2021/04/19 01:39:47;;;;;;;22.83;11.68;;;;;;;25.79;18.37;98265.28;5051434;28;20029;-90
2021/04/19 01:42:14;;;;;;;27.98;13.05;;;;;;;25.71;18.41;98256.22;5037169;28;20061;-91
2021/04/19 01:44:40;;;;;;;21.20;11.05;;;;;;;25.36;18.79;98254.25;5043604;28;20029;-91
2021/04/19 01:47:06;;;;;;;21.27;11.68;;;;;;;25.60;18.55;98247.25;5045926;28;20029;-90
2021/04/19 01:49:33;;;;;;;25.23;14.02;;;;;;;26.01;18.25;98253.00;5042601;28;20040;-91
2021/04/19 01:52:00;;;;;;;24.58;12.68;;;;;;;26.36;17.97;98253.28;5040733;28;20033;-91
2021/04/19 01:54:27;;;;;;;25.75;14.45;;;;;;;26.05;18.24;98262.13;5040461;28;20040;-91
2021/04/19 01:56:54;;;;;;;24.17;13.13;;;;;;;26.13;18.31;98256.34;5040122;28;20071;-89
2021/04/19 01:59:21;;;;;;;19.33;11.38;;;;;;;26.45;17.80;98251.41;5051592;28;20452;-88
2021/04/19 02:01:51;;;;;;;25.05;13.27;;;;;;;26.30;18.24;98255.84;5041291;28;20092;-89
2021/04/19 02:04:41;;;;;;;22.90;12.82;;;;;;;26.45;18.00;98259.84;5041921;28;20044;-89
2021/04/19 02:07:17;;;;;;;23.80;12.70;;;;;;;26.15;18.15;98251.06;5036864;28;20034;-89
2021/04/19 02:10:19;;;;;;;20.77;11.95;;;;;;;25.85;18.87;98257.88;5049454;28;20036;-89
2021/04/19 02:12:55;;;;;;;17.27;10.93;;;;;;;25.40;19.23;98258.56;5035812;28;20044;-88
2021/04/19 02:15:27;;;;;;;26.33;14.57;;;;;;;24.97;20.18;98257.22;5058348;28;20430;-89
2021/04/19 02:18:14;;;;;;;25.75;13.20;;;;;;;24.96;19.86;98259.22;5042702;28;20116;-89
2021/04/19 02:20:40;;;;;;;24.17;12.32;;;;;;;25.64;19.08;98253.59;5045478;28;20030;-89
2021/04/19 02:23:27;;;;;;;23.85;12.35;;;;;;;26.01;19.34;98253.00;5041733;28;20089;-89
2021/04/19 02:25:58;;;;;;;23.10;12.05;;;;;;;26.56;18.50;98251.88;5047159;28;20041;-90
2021/04/19 02:28:32;;;;;;;22.95;13.35;;;;;;;26.74;18.31;98254.19;5046573;28;20037;-89
2021/04/19 02:31:02;;;;;;;20.15;11.15;;;;;;;27.00;17.70;98243.75;5047232;28;20072;-88
2021/04/19 02:33:33;;;;;;;19.35;10.85;;;;;;;26.84;18.00;98252.31;5044182;28;20103;-89
2021/04/19 02:36:00;;;;;;;18.15;9.50;;;;;;;27.03;17.94;98242.84;5045552;28;20032;-88
2021/04/19 02:38:30;;;;;;;17.50;9.48;;;;;;;26.86;18.04;98245.00;5046866;28;20021;-88
2021/04/19 02:41:01;;;;;;;21.70;11.73;;;;;;;27.06;18.01;98239.13;5037899;28;20033;-91
2021/04/19 02:43:30;;;;;;;17.30;10.40;;;;;;;27.29;17.51;98236.75;5048292;28;20039;-90
2021/04/19 02:45:57;;;;;;;21.88;11.05;;;;;;;27.05;17.67;98226.28;5042441;28;20064;-90
2021/04/19 02:48:25;;;;;;;17.92;9.10;;;;;;;26.55;18.64;98235.44;5043467;28;20455;-90
2021/04/19 02:50:52;;;;;;;22.85;12.20;;;;;;;26.55;18.42;98239.03;5050634;28;20075;-89
2021/04/19 02:53:20;;;;;;;20.27;11.77;;;;;;;26.72;18.35;98231.31;5042156;28;20048;-89
2021/04/19 02:55:47;;;;;;;25.45;13.07;;;;;;;26.99;18.06;98230.88;5044419;28;20033;-90
2021/04/19 02:58:19;;;;;;;21.50;12.02;;;;;;;27.21;17.81;98229.00;5045451;28;20502;-90
2021/04/19 03:00:48;;;;;;;23.13;12.38;;;;;;;27.25;17.64;98224.81;5045632;28;20029;-89
2021/04/19 03:03:26;;;;;;;18.63;10.93;;;;;;;27.33;17.72;98225.34;5051176;28;20028;-89
2021/04/19 03:05:54;;;;;;;22.25;11.40;;;;;;;27.44;17.45;98214.56;5042955;28;20037;-89
2021/04/19 03:08:21;;;;;;;19.45;10.80;;;;;;;27.47;17.61;98216.44;5039767;28;20033;-90
2021/04/19 03:11:03;;;;;;;17.60;9.95;;;;;;;27.45;17.56;98215.31;5046270;28;20140;-89
2021/04/19 03:13:32;;;;;;;17.20;10.30;;;;;;;27.60;17.46;98225.69;5045707;28;20033;-88
2021/04/19 03:15:59;;;;;;;20.55;11.55;;;;;;;27.64;17.36;98225.56;5044904;28;20013;-88
2021/04/19 03:18:29;;;;;;;19.02;10.88;;;;;;;27.69;17.32;98222.97;5045388;28;20029;-88
2021/04/19 03:21:08;;;;;;;21.08;11.43;;;;;;;27.53;17.29;98233.59;5042320;28;20113;-88
2021/04/19 03:23:38;;;;;;;18.73;10.02;;;;;;;26.57;18.31;98233.75;5045331;28;20041;-89
2021/04/19 03:26:06;;;;;;;18.55;10.20;;;;;;;26.07;18.64;98236.34;5047689;28;20510;-89
2021/04/19 03:28:34;;;;;;;23.70;12.95;;;;;;;25.96;18.99;98228.22;5047046;28;20037;-89
2021/04/19 03:31:07;;;;;;;22.15;11.93;;;;;;;26.44;18.34;98235.72;5040752;28;20033;-89
2021/04/19 03:33:38;;;;;;;18.25;10.45;;;;;;;26.76;18.35;98229.19;5043183;28;20059;-89
2021/04/19 03:36:07;;;;;;;19.30;11.35;;;;;;;26.83;18.26;98228.19;5044615;28;20379;-89
2021/04/19 03:38:35;;;;;;;22.50;11.73;;;;;;;26.77;18.17;98225.13;5048706;28;20035;-89
2021/04/19 03:41:02;;;;;;;20.73;11.63;;;;;;;26.83;18.22;98222.53;5042434;28;20512;-89
2021/04/19 03:43:31;;;;;;;21.95;12.18;;;;;;;26.82;18.38;98221.75;5050429;28;20044;-89
2021/04/19 03:46:03;;;;;;;19.85;11.18;;;;;;;26.76;18.51;98228.41;5048336;28;20112;-89
2021/04/19 03:48:31;;;;;;;20.10;11.10;;;;;;;27.08;18.30;98214.09;5044031;28;20033;-91
2021/04/19 03:51:05;;;;;;;17.85;11.07;;;;;;;27.19;17.74;98218.16;5052098;28;20086;-92
2021/04/19 03:53:32;;;;;;;21.70;10.98;;;;;;;26.98;18.15;98224.47;5048190;28;20069;-88
2021/04/19 03:56:01;;;;;;;19.60;10.80;;;;;;;27.17;17.96;98222.66;5051152;28;20549;-89
2021/04/19 03:58:31;;;;;;;21.02;11.05;;;;;;;27.32;17.76;98220.97;5052923;28;20033;-90
2021/04/19 04:01:03;;;;;;;16.40;9.38;;;;;;;26.95;18.09;98222.56;5050732;28;20120;-90
2021/04/19 04:03:32;;;;;;;19.83;11.60;;;;;;;27.14;18.00;98218.72;5067558;28;20037;-88
2021/04/19 04:06:00;;;;;;;20.85;11.32;;;;;;;27.01;18.36;98209.47;5050082;28;20029;-88
2021/04/19 04:08:28;;;;;;;19.98;12.23;;;;;;;26.96;18.49;98217.69;5048231;28;20061;-88
2021/04/19 04:10:55;;;;;;;17.48;10.30;;;;;;;27.03;18.29;98206.19;5043339;28;20116;-88
2021/04/19 04:13:22;;;;;;;23.20;12.88;;;;;;;27.24;18.30;98205.50;5048579;28;20087;-88
2021/04/19 04:15:59;;;;;;;17.65;10.00;;;;;;;27.30;18.01;98200.91;5046909;28;20481;-89
2021/04/19 04:18:26;;;;;;;15.63;8.98;;;;;;;27.46;18.03;98197.97;5044791;28;20029;-90
2021/04/19 04:20:52;;;;;;;16.65;9.32;;;;;;;27.17;18.22;98198.06;5043709;28;20056;-90
2021/04/19 04:23:19;;;;;;;22.42;11.68;;;;;;;27.10;18.26;98198.31;5045845;28;20108;-89
2021/04/19 04:25:47;;;;;;;18.88;11.23;;;;;;;27.03;18.54;98198.53;5048752;28;20053;-90
2021/04/19 04:28:14;;;;;;;22.02;12.95;;;;;;;27.36;18.25;98199.06;5049450;28;20033;-90
2021/04/19 04:30:41;;;;;;;19.85;10.63;;;;;;;27.46;18.30;98197.16;5047930;28;20029;-88
2021/04/19 04:33:08;;;;;;;19.25;10.80;;;;;;;26.87;18.80;98209.91;5049718;28;20037;-89
2021/04/19 04:35:36;;;;;;;18.42;10.85;;;;;;;26.76;18.90;98200.22;5047647;28;20037;-89
2021/04/19 04:38:02;;;;;;;18.98;10.95;;;;;;;26.96;18.81;98189.50;5049276;28;20065;-89
2021/04/19 04:40:30;;;;;;;20.40;9.52;;;;;;;26.85;18.76;98194.69;5046823;28;20056;-88
2021/04/19 04:43:06;;;;;;;22.13;11.73;;;;;;;27.16;18.42;98195.72;5050627;28;20036;-89
2021/04/19 04:45:33;;;;;;;20.10;11.68;;;;;;;27.55;18.32;98191.63;5041337;28;20060;-88
2021/04/19 04:48:01;;;;;;;18.55;9.85;;;;;;;27.57;18.31;98194.75;5047596;28;20033;-89
2021/04/19 04:50:39;;;;;;;15.75;10.00;;;;;;;27.23;18.71;98196.28;5047498;28;20037;-89
2021/04/19 04:53:16;;;;;;;19.73;9.98;;;;;;;26.67;19.33;98198.06;5049587;28;20153;-89
2021/04/19 04:55:43;;;;;;;21.05;12.00;;;;;;;26.44;19.66;98207.56;5047319;28;20048;-89
2021/04/19 04:58:10;;;;;;;21.48;11.85;;;;;;;26.33;19.75;98207.09;5046503;28;20041;-89
2021/04/19 05:00:37;;;;;;;21.73;12.35;;;;;;;26.55;19.78;98205.25;5049453;28;20032;-88
2021/04/19 05:03:04;;;;;;;19.92;10.73;;;;;;;26.98;19.04;98206.78;5035897;28;20041;-89
2021/04/19 05:05:31;;;;;;;20.42;11.88;;;;;;;26.67;19.45;98207.28;5045609;28;20033;-88
2021/04/19 05:07:58;;;;;;;18.80;11.50;;;;;;;26.51;19.69;98210.16;5051513;28;20043;-88
2021/04/19 05:10:25;;;;;;;19.20;10.55;;;;;;;26.50;19.78;98202.97;5050309;28;20101;-87
2021/04/19 05:12:51;;;;;;;16.05;9.95;;;;;;;26.61;19.53;98211.88;5046085;28;20489;-88
2021/04/19 05:15:17;;;;;;;21.42;12.38;;;;;;;27.04;19.42;98204.97;5052839;28;20048;-87
2021/04/19 05:17:44;;;;;;;20.48;11.88;;;;;;;27.45;18.79;98210.47;5045676;28;20044;-90
2021/04/19 05:20:12;;;;;;;20.55;12.10;;;;;;;27.61;18.78;98201.09;5049009;28;20063;-88
2021/04/19 05:22:38;;;;;;;21.63;12.13;;;;;;;27.81;18.70;98205.22;5043847;28;20053;-88
2021/04/19 05:25:05;;;;;;;19.40;11.52;;;;;;;28.04;18.31;98204.81;5049781;28;20029;-88
2021/04/19 05:27:32;;;;;;;18.20;10.63;;;;;;;28.15;18.37;98201.59;5048498;28;20119;-89
2021/04/19 05:30:00;;;;;;;20.30;12.50;;;;;;;28.27;18.20;98202.78;5043524;28;20519;-89
2021/04/19 05:32:29;;;;;;;19.40;12.07;;;;;;;28.35;18.23;98199.25;5046360;28;20040;-89
2021/04/19 05:34:56;;;;;;;18.60;11.20;;;;;;;28.44;18.29;98201.31;5043186;28;20485;-89
2021/04/19 05:37:24;;;;;;;17.10;10.63;;;;;;;28.43;18.31;98205.38;5043146;28;20040;-92
2021/04/19 05:39:50;;;;;;;21.42;13.23;;;;;;;28.35;18.24;98209.75;5039939;28;20127;-92
2021/04/19 05:42:17;;;;;;;22.85;12.77;;;;;;;28.42;18.27;98201.00;5044898;28;20025;-93
2021/04/19 05:44:44;;;;;;;22.75;12.80;;;;;;;28.46;18.20;98210.91;5060451;28;20037;-92
2021/04/19 05:47:12;;;;;;;21.58;12.82;;;;;;;28.50;18.07;98203.09;5042452;28;20094;-91
2021/04/19 05:49:39;;;;;;;19.33;11.60;;;;;;;28.56;18.16;98208.94;5039390;28;20056;-88
2021/04/19 05:52:07;;;;;;;19.83;12.27;;;;;;;28.41;18.36;98207.88;5046758;28;20087;-90
2021/04/19 05:54:39;;;;;;;17.10;11.50;;;;;;;28.16;18.41;98191.09;5045856;28;20029;-88
2021/04/19 05:57:09;;;;;;;19.58;11.70;;;;;;;28.03;18.72;98214.50;5053758;28;20045;-89
2021/04/19 05:59:50;;;;;;;20.52;12.07;;;;;;;27.85;18.77;98208.69;5052809;28;20100;-88
2021/04/19 06:02:42;;;;;;;20.05;11.40;;;;;;;27.94;18.82;98210.78;5056660;28;20107;-87
2021/04/19 06:05:30;;;;;;;17.73;10.98;;;;;;;27.84;18.88;98215.56;5050152;28;20045;-88
2021/04/19 06:08:19;;;;;;;16.88;10.68;;;;;;;27.67;19.17;98216.19;5046325;28;20045;-87
2021/04/19 06:10:52;;;;;;;18.50;9.95;;;;;;;27.81;19.03;98215.69;5047077;28;20044;-87
2021/04/19 06:13:20;;;;;;;18.45;10.52;;;;;;;27.99;18.90;98213.84;5037419;28;20034;-88
2021/04/19 06:15:50;;;;;;;19.55;12.02;;;;;;;28.23;18.70;98214.22;5053136;28;20029;-87
2021/04/19 06:18:20;;;;;;;18.13;11.52;;;;;;;28.43;18.44;98211.03;5060202;28;20033;-88
2021/04/19 06:20:49;;;;;;;22.80;12.82;;;;;;;28.54;18.58;98215.03;5050322;28;20450;-88
2021/04/19 06:23:15;;;;;;;21.75;12.23;;;;;;;28.63;18.60;98214.34;5038419;28;20447;-86
2021/04/19 06:25:41;;;;;;;20.98;11.98;;;;;;;28.73;18.27;98218.78;5050528;28;20041;-87
2021/04/19 06:28:07;;;;;;;19.85;10.57;;;;;;;28.73;18.27;98216.75;5052213;28;20032;-86
2021/04/19 06:30:41;;;;;;;19.65;11.98;;;;;;;28.58;18.62;98212.88;5049756;28;20401;-88
2021/04/19 06:33:09;;;;;;;22.90;12.30;;;;;;;28.36;18.71;98216.94;5048504;28;20032;-88
2021/04/19 06:35:35;;;;;;;18.73;11.55;;;;;;;28.31;19.09;98214.75;5042250;28;20091;-89
2021/04/19 06:38:02;;;;;;;22.23;12.35;;;;;;;28.40;19.05;98217.63;5041928;28;20025;-89
2021/04/19 06:40:28;;;;;;;21.20;12.60;;;;;;;28.45;19.15;98217.81;5043661;28;20047;-88
2021/04/19 06:42:57;;;;;;;21.58;12.55;;;;;;;28.53;18.98;98219.13;5042680;28;20082;-87
2021/04/19 06:45:23;;;;;;;22.75;12.68;;;;;;;28.70;18.69;98220.53;5040887;28;20051;-87
2021/04/19 06:47:52;;;;;;;23.20;14.25;;;;;;;28.78;18.60;98226.66;5041417;28;20037;-87
2021/04/19 06:50:19;;;;;;;27.25;13.25;;;;;;;28.69;18.91;98223.78;5039660;28;20052;-87
2021/04/19 06:52:49;;;;;;;20.23;12.13;;;;;;;28.63;18.85;98220.78;5035811;28;20033;-86
2021/04/19 06:55:18;;;;;;;23.92;14.68;;;;;;;28.72;18.85;98228.53;5043410;28;20037;-87
2021/04/19 06:58:01;;;;;;;20.58;12.30;;;;;;;28.74;18.88;98226.03;5038717;28;20049;-87
2021/04/19 07:00:30;;;;;;;25.17;12.75;;;;;;;28.75;18.77;98221.97;5043834;28;20561;-87
2021/04/19 07:02:58;;;;;;;22.17;12.93;;;;;;;28.57;19.18;98213.31;5045603;28;20639;-87
2021/04/19 07:05:27;;;;;;;22.65;13.43;;;;;;;28.44;19.49;98201.31;5046857;28;20500;-87
2021/04/19 07:08:01;;;;;;;22.25;13.32;;;;;;;28.50;19.45;98197.44;5058413;28;20026;-87
2021/04/19 07:10:28;;;;;;;23.55;13.70;;;;;;;28.53;19.32;98199.34;5047987;28;20481;-87
2021/04/19 07:12:56;;;;;;;21.80;11.85;;;;;;;28.48;19.40;98193.50;5036534;28;20487;-87
2021/04/19 07:15:23;;;;;;;19.30;11.93;;;;;;;28.50;19.25;98193.81;5048329;28;20025;-83
2021/04/19 07:17:50;;;;;;;23.15;13.80;;;;;;;28.33;19.65;98190.44;5042093;28;22532;-86
2021/04/19 07:20:17;;;;;;;24.92;14.60;;;;;;;27.27;20.86;98188.50;5045820;28;20548;-85
2021/04/19 07:22:44;;;;;;;23.25;13.27;;;;;;;26.73;21.30;98199.06;5043412;28;20044;-85
2021/04/19 07:25:11;;;;;;;23.83;14.77;;;;;;;25.85;22.60;98196.78;5029731;28;20052;-85
2021/04/19 07:27:39;;;;;;;22.02;13.13;;;;;;;25.81;22.66;98192.47;5048408;28;20470;-85
2021/04/19 07:30:07;;;;;;;23.05;14.77;;;;;;;25.56;23.05;98192.34;5043832;28;20041;-85
2021/04/19 07:32:35;;;;;;;22.38;13.85;;;;;;;25.79;23.02;98197.75;5039122;28;20033;-85
2021/04/19 07:35:02;;;;;;;23.80;14.10;;;;;;;26.62;22.35;98193.75;5044616;28;20033;-86
2021/04/19 07:37:28;;;;;;;20.13;12.75;;;;;;;27.17;21.24;98197.28;5039867;28;20135;-86
2021/04/19 07:39:56;;;;;;;20.42;12.82;;;;;;;27.63;20.75;98184.50;5044180;28;20041;-85
2021/04/19 07:42:22;;;;;;;23.45;12.93;;;;;;;27.87;20.80;98192.06;5044887;28;20031;-85
2021/04/19 07:44:53;;;;;;;19.40;12.05;;;;;;;27.90;20.33;98185.53;5044534;28;20034;-85
2021/04/19 07:47:19;;;;;;;;;;;;;;;27.59;20.89;98184.59;5043976;28;20033;-85
2021/04/19 07:49:59;;;;;;;22.08;12.35;;;;;;;27.22;21.50;98189.06;5047572;28;20007;-85
2021/04/19 07:52:27;;;;;;;20.17;11.98;;;;;;;26.81;21.90;98186.38;5045369;28;20029;-85
2021/04/19 07:55:09;;;;;;;20.90;12.95;;;;;;;27.30;21.53;98178.34;5040774;28;20596;-85
2021/04/19 07:57:35;;;;;;;23.88;13.32;;;;;;;27.73;20.99;98177.69;5039740;28;20072;-86
2021/04/19 08:00:03;;;;;;;20.60;12.05;;;;;;;28.12;20.78;98191.22;5043351;28;20033;-86
2021/04/19 08:02:29;;;;;;;20.35;12.02;;;;;;;28.19;20.64;98193.00;5044657;28;20033;-87
2021/04/19 08:04:55;;;;;;;20.15;11.93;;;;;;;28.55;20.44;98193.22;5046002;28;20398;-85
2021/04/19 08:07:27;;;;;;;20.33;12.70;;;;;;;28.63;19.90;98189.72;5038387;28;20032;-85
2021/04/19 08:09:58;;;;;;;20.27;12.05;;;;;;;28.78;20.08;98195.59;5041460;28;20029;-86
2021/04/19 08:12:36;;;;;;;19.95;12.10;;;;;;;28.80;20.03;98207.19;5042212;28;20033;-86
2021/04/19 08:15:23;;;;;;;17.90;11.00;;;;;;;29.03;19.54;98201.06;5040692;28;20025;-85
2021/04/19 08:17:50;;;;;;;20.83;11.70;;;;;;;29.04;19.87;98199.78;5038240;28;20048;-86
2021/04/19 08:20:17;;;;;;;18.80;11.45;;;;;;;29.10;19.52;98197.16;5044516;28;20486;-86
2021/04/19 08:22:43;;;;;;;18.63;11.10;;;;;;;29.24;19.30;98202.25;5045713;28;20045;-85
2021/04/19 08:25:18;;;;;;;17.05;10.90;;;;;;;29.12;19.50;98203.91;5037106;28;20034;-87
2021/04/19 08:27:47;;;;;;;17.17;11.15;;;;;;;29.00;19.98;98196.31;5042566;28;20060;-88
2021/04/19 08:30:16;;;;;;;19.38;12.77;;;;;;;29.09;19.80;98202.00;5042967;28;20045;-86
2021/04/19 08:32:49;;;;;;;19.25;12.63;;;;;;;29.18;19.77;98199.25;5044745;28;20044;-85
2021/04/19 08:35:16;;;;;;;20.25;12.15;;;;;;;29.20;19.70;98210.88;5050536;28;20025;-86
2021/04/19 08:37:42;;;;;;;19.10;12.02;;;;;;;29.29;19.71;98213.72;5042901;28;20036;-85
2021/04/19 08:40:09;;;;;;;21.85;13.95;;;;;;;29.25;19.47;98215.94;5063902;28;20025;-85
2021/04/19 08:42:37;;;;;;;20.05;13.40;;;;;;;29.03;19.83;98215.19;5047608;28;20045;-85
2021/04/19 08:45:05;;;;;;;20.45;13.80;;;;;;;29.00;19.91;98207.63;5049112;28;20029;-85
2021/04/19 08:47:31;;;;;;;21.02;13.55;;;;;;;29.02;19.77;98213.59;5044517;28;20035;-86
2021/04/19 08:50:00;;;;;;;23.98;14.93;;;;;;;28.75;20.09;98216.31;5042600;28;20025;-87
2021/04/19 08:52:27;;;;;;;22.08;14.07;;;;;;;28.98;20.21;98206.53;5040085;28;20033;-87
2021/04/19 08:54:54;;;;;;;22.67;15.13;;;;;;;29.15;20.05;98193.72;5042017;28;20262;-87
2021/04/19 08:57:21;;;;;;;21.83;14.20;;;;;;;29.46;20.21;98196.47;5036428;28;20049;-89
2021/04/19 08:59:50;;;;;;;23.55;14.18;;;;;;;29.50;20.05;98195.06;5044568;28;20029;-87
2021/04/19 09:02:17;;;;;;;22.55;14.00;;;;;;;29.38;20.42;98198.84;5057737;28;20037;-88
2021/04/19 09:05:09;;;;;;;21.48;13.80;;;;;;;29.01;20.58;98200.72;5047451;28;20470;-90
2021/04/19 09:07:36;;;;;;;;;;;;;;;28.82;21.25;98199.06;5045473;28;20168;-87
2021/04/19 09:10:05;;;;;;;21.30;14.02;;;;;;;28.95;20.92;98193.31;5046939;28;19929;-87
2021/04/19 09:12:31;;;;;;;20.98;13.63;;;;;;;28.96;20.68;98192.84;5043134;28;20047;-87
2021/04/19 09:15:19;;;;;;;22.10;13.85;;;;;;;28.78;21.14;98194.81;5047068;28;20041;-87
2021/04/19 09:18:17;;;;;;;20.45;13.00;;;;;;;28.84;20.91;98198.59;5040206;28;20823;-87
2021/04/19 09:20:55;;;;;;;23.40;14.45;;;;;;;29.23;20.67;98192.19;5033157;28;20802;-86
2021/04/19 09:23:31;;;;;;;17.38;12.10;;;;;;;29.40;20.64;98193.50;5042027;28;20033;-86
2021/04/19 09:26:01;;;;;;;19.58;12.90;;;;;;;29.46;20.92;98185.97;5044833;28;20055;-86
2021/04/19 09:28:45;;;;;;;18.40;12.45;;;;;;;29.45;20.69;98181.56;5047079;28;20120;-86
2021/04/19 09:31:13;;;;;;;18.77;12.05;;;;;;;29.69;20.69;98187.41;5040568;28;20048;-87
2021/04/19 09:33:39;;;;;;;19.75;12.40;;;;;;;29.56;20.42;98184.72;5041500;28;20392;-87
2021/04/19 09:36:06;;;;;;;19.45;12.50;;;;;;;29.69;20.70;98181.75;5041609;28;20196;-86
2021/04/19 09:38:40;;;;;;;21.33;12.20;;;;;;;29.63;20.79;98172.31;5038578;28;21781;-86
2021/04/19 09:41:11;;;;;;;16.98;11.35;;;;;;;29.58;20.97;98182.22;5037200;28;20072;-87
2021/04/19 09:43:40;;;;;;;17.77;11.38;;;;;;;29.76;20.74;98176.59;5038817;28;20028;-89
2021/04/19 09:46:15;;;;;;;16.40;10.82;;;;;;;29.45;21.01;98172.28;5054831;28;20048;-88
2021/04/19 09:48:58;;;;;;;18.00;10.65;;;;;;;29.51;20.77;98176.06;5038482;28;20029;-87
2021/04/19 09:51:31;;;;;;;22.55;14.43;;;;;;;29.55;20.88;98163.34;5041284;28;20048;-88
2021/04/19 09:54:07;;;;;;;28.52;16.83;;;;;;;29.74;21.08;98162.09;5057001;28;20064;-87
2021/04/19 09:56:35;;;;;;;22.80;14.32;;;;;;;29.43;20.81;98167.09;5045416;28;20052;-88
2021/04/19 09:59:02;;;;;;;19.67;12.10;;;;;;;29.06;21.50;98157.69;5046032;28;20037;-87
2021/04/19 10:01:31;;;;;;;17.35;11.20;;;;;;;28.21;22.38;98170.72;5042397;28;20021;-87
2021/04/19 10:03:58;;;;;;;14.18;10.85;;;;;;;28.41;22.21;98169.13;5047572;28;20029;-88
2021/04/19 10:06:46;;;;;;;17.83;10.27;;;;;;;28.56;21.74;98163.75;5035455;28;20037;-88
2021/04/19 10:09:21;;;;;;;15.50;9.23;;;;;;;29.21;21.49;98170.03;5034782;28;20041;-88
2021/04/19 10:12:00;;;;;;;13.73;8.82;;;;;;;29.07;21.24;98162.09;5046061;28;20449;-89
2021/04/19 10:14:32;;;;;;;11.90;7.90;;;;;;;28.90;21.33;98159.97;5044686;28;20032;-89
2021/04/19 10:16:58;;;;;;;14.32;9.13;;;;;;;28.24;22.10;98156.47;5048821;28;20052;-89
2021/04/19 10:19:30;;;;;;;19.40;12.10;;;;;;;27.28;23.04;98158.28;5041731;28;20033;-89
2021/04/19 10:22:10;;;;;;;13.80;8.48;;;;;;;27.26;22.98;98144.59;5042620;28;20508;-86
2021/04/19 10:24:57;;;;;;;15.17;9.23;;;;;;;27.27;23.40;98148.22;5041435;28;20044;-86
2021/04/19 10:27:31;;;;;;;14.98;9.93;;;;;;;27.61;22.70;98151.09;5036029;28;20140;-86
2021/04/19 10:30:15;;;;;;;12.98;8.45;;;;;;;28.35;22.33;98156.88;5038225;28;20150;-86
2021/04/19 10:32:45;;;;;;;13.85;8.63;;;;;;;28.64;21.72;98150.91;5047890;28;20063;-86
2021/04/19 10:35:41;;;;;;;12.93;8.15;;;;;;;28.55;21.50;98156.50;5046243;28;20025;-86
2021/04/19 10:38:07;;;;;;;14.68;8.18;;;;;;;28.86;21.39;98146.00;5045191;28;20044;-86
2021/04/19 10:40:34;;;;;;;12.43;7.93;;;;;;;28.20;21.86;98155.03;5047612;28;20033;-86
2021/04/19 10:43:10;;;;;;;13.65;8.50;;;;;;;28.69;21.70;98156.78;5040356;28;20035;-86
2021/04/19 10:45:36;;;;;;;12.32;8.00;;;;;;;29.14;21.22;98158.19;5040436;28;20033;-86
2021/04/19 10:48:22;;;;;;;14.13;8.27;;;;;;;28.92;20.75;98149.00;5043667;28;20029;-86
2021/04/19 10:50:50;;;;;;;13.32;8.02;;;;;;;28.51;21.71;98159.47;5041797;28;20040;-86
2021/04/19 10:53:33;;;;;;;11.63;7.75;;;;;;;28.32;21.68;98154.97;5041374;28;20029;-86
2021/04/19 10:56:01;;;;;;;14.27;9.38;;;;;;;27.86;22.27;98153.03;5040904;28;20112;-86
2021/04/19 10:58:31;;;;;;;15.65;9.25;;;;;;;26.93;23.15;98156.63;5046070;28;20033;-86
2021/04/19 11:00:59;;;;;;;16.65;9.95;;;;;;;27.09;23.47;98156.50;5054421;28;20372;-85
2021/04/19 11:03:33;;;;;;;17.83;10.48;;;;;;;26.88;23.36;98157.97;5039733;28;20029;-86
2021/04/19 11:06:05;;;;;;;16.70;10.63;;;;;;;26.05;24.46;98162.84;5039550;28;20406;-85
2021/04/19 11:08:58;;;;;;;16.70;9.75;;;;;;;25.66;24.66;98157.53;5041970;28;20491;-86
2021/04/19 11:11:32;;;;;;;14.82;9.88;;;;;;;25.28;25.46;98158.09;5035515;28;20037;-85
2021/04/19 11:14:18;;;;;;;17.98;11.60;;;;;;;24.93;26.25;98149.75;5038492;28;20117;-86
2021/04/19 11:17:06;;;;;;;20.35;12.05;;;;;;;25.18;25.96;98159.13;5039453;28;20041;-84
2021/04/19 11:19:42;;;;;;;19.30;11.75;;;;;;;24.76;26.49;98153.75;5040909;28;20030;-86
2021/04/19 11:22:34;;;;;;;19.70;11.65;;;;;;;25.60;25.56;98153.69;5039674;28;20026;-85
2021/04/19 11:25:19;;;;;;;21.33;12.07;;;;;;;25.30;25.79;98146.38;5043880;28;20044;-86
2021/04/19 11:27:50;;;;;;;23.20;14.13;;;;;;;25.67;25.63;98154.25;5034096;28;20044;-85
2021/04/19 11:30:24;;;;;;;22.23;13.82;;;;;;;27.00;24.13;98150.75;5038811;28;20060;-86
2021/04/19 11:33:08;;;;;;;25.98;13.77;;;;;;;27.96;22.84;98140.56;5036834;28;20037;-87
2021/04/19 11:35:40;;;;;;;22.50;13.18;;;;;;;28.45;22.30;98135.88;5032317;28;20041;-88